Time;durP1;ratioP1;P1;durP2;ratioP2;P2;SDS_P1;SDS_P2;PMS_P1;PMS_P2;Temp;Humidity;BMP_temperature;BMP_pressure;BME280_temperature;BME280_humidity;BME280_pressure;Samples;Min_cycle;Max_cycle;Signal;HPM_P1;HPM_P2
2022/01/25 00:26:59;;;;;;;31.17;23.42;;;7.40;68.70;;;;;;5067430;28;20036;-80
2022/01/25 00:30:22;;;;;;;35.08;26.52;;;7.40;68.80;;;;;;5066641;28;20044;-79
2022/01/25 00:32:16;;;;;;;34.15;23.90;;;7.40;68.80;;;;;;5066679;28;20040;-80
2022/01/25 00:34:42;;;;;;;36.35;26.60;;;7.40;68.80;;;;;;5066947;28;20082;-81
2022/01/25 00:37:09;;;;;;;34.08;24.92;;;7.40;68.80;;;;;;5067341;28;20090;-80
2022/01/25 00:39:38;;;;;;;34.22;25.38;;;7.40;68.80;;;;;;5066010;28;20060;-80
2022/01/25 00:42:05;;;;;;;33.80;24.77;;;7.40;68.80;;;;;;5050328;28;20425;-80
2022/01/25 00:44:37;;;;;;;31.70;23.45;;;7.40;68.80;;;;;;5065868;28;20024;-80
2022/01/25 00:47:05;;;;;;;33.35;23.45;;;7.40;68.80;;;;;;5067165;28;20968;-80
2022/01/25 00:49:35;;;;;;;33.83;25.15;;;7.40;68.80;;;;;;5049051;28;20020;-81
2022/01/25 00:52:17;;;;;;;34.53;24.88;;;7.40;68.80;;;;;;5065792;28;20032;-81
2022/01/25 00:54:43;;;;;;;34.25;25.20;;;7.40;68.80;;;;;;5065558;28;20029;-80
2022/01/25 00:57:09;;;;;;;34.72;25.10;;;7.40;68.80;;;;;;5065394;28;20024;-80
2022/01/25 00:59:36;;;;;;;31.75;24.35;;;7.40;68.80;;;;;;5048731;28;20040;-79
2022/01/25 01:02:05;;;;;;;34.38;24.52;;;7.40;68.90;;;;;;5065558;28;20478;-80
2022/01/25 01:04:32;;;;;;;37.55;26.27;;;7.40;68.90;;;;;;5065293;28;20040;-80
2022/01/25 01:07:02;;;;;;;33.05;24.73;;;7.40;68.90;;;;;;5065568;28;20024;-81
2022/01/25 01:09:31;;;;;;;34.00;25.77;;;7.30;68.70;;;;;;5066809;28;20078;-81
2022/01/25 01:12:11;;;;;;;31.73;24.13;;;7.30;68.70;;;;;;5065226;28;20127;-81
2022/01/25 01:17:47;;;;;;;38.10;27.13;;;7.30;68.70;;;;;;5066604;28;20033;-81
2022/01/25 01:31:16;;;;;;;38.50;27.45;;;7.30;68.80;;;;;;5065418;28;20398;-80
2022/01/25 01:44:23;;;;;;;37.10;25.85;;;7.30;68.80;;;;;;5065241;28;20040;-79
2022/01/25 01:47:34;;;;;;;35.53;26.65;;;7.30;68.80;;;;;;5070460;28;20033;-79
2022/01/25 01:49:44;;;;;;;35.50;25.63;;;7.30;68.90;;;;;;5067223;28;20543;-80
2022/01/25 01:52:12;;;;;;;37.13;26.95;;;7.30;68.90;;;;;;5052604;28;20040;-80
2022/01/25 01:54:39;;;;;;;34.95;25.23;;;7.20;68.70;;;;;;5069312;28;20056;-79
2022/01/25 01:57:09;;;;;;;33.95;24.95;;;7.20;68.70;;;;;;5070278;28;20032;-80
2022/01/25 01:59:35;;;;;;;37.53;26.17;;;7.20;68.70;;;;;;5069731;28;20036;-79
2022/01/25 02:02:02;;;;;;;35.47;26.88;;;7.20;68.70;;;;;;5068812;28;20115;-79
2022/01/25 02:04:28;;;;;;;35.65;25.95;;;7.20;69.30;;;;;;5070322;28;20269;-81
2022/01/25 02:06:54;;;;;;;35.90;25.83;;;7.20;68.80;;;;;;5069749;28;20422;-80
2022/01/25 02:09:20;;;;;;;35.75;27.30;;;7.20;68.80;;;;;;5068619;28;20039;-79
2022/01/25 02:11:46;;;;;;;37.70;29.17;;;7.20;68.80;;;;;;5069671;28;20033;-79
2022/01/25 02:14:15;;;;;;;36.28;25.88;;;7.20;68.80;;;;;;5069883;28;20399;-79
2022/01/25 02:24:43;;;;;;;36.60;26.48;;;7.20;68.90;;;;;;5069826;28;20098;-80
2022/01/25 02:27:10;;;;;;;36.17;26.85;;;7.20;68.90;;;;;;5069739;28;20013;-79
2022/01/25 02:29:37;;;;;;;39.38;27.85;;;7.20;68.90;;;;;;5069711;28;20028;-80
2022/01/25 02:32:04;;;;;;;36.28;26.02;;;7.20;68.90;;;;;;5051921;28;20021;-80
2022/01/25 02:34:30;;;;;;;36.05;26.67;;;7.20;68.90;;;;;;5070785;28;20028;-81
2022/01/25 02:37:01;;;;;;;40.00;27.70;;;7.20;69.00;;;;;;5072652;28;20033;-82
2022/01/25 02:39:28;;;;;;;39.10;27.95;;;7.20;69.00;;;;;;5070321;28;20076;-81
2022/01/25 02:41:55;;;;;;;38.88;27.98;;;7.20;69.00;;;;;;5070922;28;20025;-81
2022/01/25 02:44:27;;;;;;;41.72;28.60;;;7.20;69.00;;;;;;5071260;28;20047;-81
2022/01/25 02:49:28;;;;;;;36.45;26.95;;;7.20;69.00;;;;;;5075562;28;20032;-80
2022/01/25 02:51:54;;;;;;;37.75;28.33;;;7.20;69.00;;;;;;5074022;28;20440;-81
2022/01/25 02:54:20;;;;;;;36.58;28.45;;;7.20;69.00;;;;;;5073297;28;20097;-81
2022/01/25 02:56:47;;;;;;;36.33;26.60;;;7.20;69.00;;;;;;5072619;28;20506;-80
2022/01/25 02:59:14;;;;;;;39.97;27.92;;;7.20;69.00;;;;;;5072515;28;20045;-80
2022/01/25 03:01:41;;;;;;;36.03;27.88;;;7.20;69.00;;;;;;5071991;28;20119;-79
2022/01/25 03:04:08;;;;;;;36.00;27.13;;;7.20;69.00;;;;;;5071463;28;20039;-80
2022/01/25 03:06:35;;;;;;;37.95;28.08;;;7.20;69.00;;;;;;5072866;28;20086;-79
2022/01/25 03:09:03;;;;;;;41.72;28.55;;;7.20;69.00;;;;;;5072445;28;20033;-80
2022/01/25 03:11:29;;;;;;;38.30;26.98;;;7.20;69.00;;;;;;5072615;28;20028;-80
2022/01/25 03:13:59;;;;;;;42.00;28.75;;;7.30;69.20;;;;;;5072178;28;20039;-80
2022/01/25 03:19:26;;;;;;;37.83;28.05;;;7.20;69.50;;;;;;5072296;28;20600;-80
2022/01/25 03:21:50;;;;;;;37.78;26.70;;;7.20;69.00;;;;;;5070899;28;20049;-80
2022/01/25 03:24:16;;;;;;;38.67;28.85;;;7.20;69.00;;;;;;5072008;28;20111;-80
2022/01/25 03:26:42;;;;;;;39.17;28.83;;;7.20;69.00;;;;;;5071905;28;20095;-79
2022/01/25 03:29:08;;;;;;;41.90;29.38;;;7.10;68.80;;;;;;5071813;28;20028;-80
2022/01/25 03:31:34;;;;;;;40.42;27.75;;;7.10;68.90;;;;;;5071784;28;20111;-80
2022/01/25 03:34:00;;;;;;;41.25;29.58;;;7.20;69.10;;;;;;5071656;28;20036;-80
2022/01/25 03:36:26;;;;;;;39.20;28.23;;;7.20;69.10;;;;;;5070801;28;20028;-79
2022/01/25 03:38:53;;;;;;;39.78;28.90;;;7.10;68.90;;;;;;5071583;28;20063;-80
2022/01/25 03:41:19;;;;;;;40.38;28.02;;;7.10;68.90;;;;;;5071802;28;20035;-80
2022/01/25 03:43:52;;;;;;;41.17;30.40;;;7.10;69.00;;;;;;5070071;28;20498;-80
2022/01/25 03:51:38;;;;;;;40.15;30.23;;;7.10;69.00;;;;;;5071464;28;20199;-80
2022/01/25 03:54:05;;;;;;;42.63;29.40;;;7.10;69.00;;;;;;5053429;28;20546;-80
2022/01/25 03:56:32;;;;;;;41.88;30.13;;;7.10;69.00;;;;;;5070256;28;20107;-80
2022/01/25 03:58:58;;;;;;;44.53;30.20;;;7.10;69.00;;;;;;5071014;28;20040;-79
2022/01/25 04:01:24;;;;;;;41.47;28.67;;;7.10;69.00;;;;;;5071367;28;20033;-79
2022/01/25 04:04:00;;;;;;;41.08;28.95;;;7.10;69.00;;;;;;5071605;28;20040;-80
2022/01/25 04:06:29;;;;;;;38.88;27.95;;;7.10;69.00;;;;;;5070943;28;20030;-80
2022/01/25 04:08:57;;;;;;;40.45;28.77;;;7.10;69.00;;;;;;5069510;28;20033;-79
2022/01/25 04:11:23;;;;;;;38.33;28.98;;;7.10;69.00;;;;;;5070197;28;20069;-79
2022/01/25 04:13:53;;;;;;;38.33;28.63;;;7.10;69.00;;;;;;5073117;28;20039;-80
2022/01/25 04:16:25;;;;;;;42.13;29.83;;;7.10;69.00;;;;;;5085989;28;20024;-79
2022/01/25 04:21:46;;;;;;;42.33;30.02;;;7.10;69.00;;;;;;5080505;28;20040;-81
2022/01/25 04:26:57;;;;;;;44.40;30.40;;;7.00;68.90;;;;;;5095677;28;20036;-81
2022/01/25 04:29:25;;;;;;;43.28;29.95;;;7.00;68.90;;;;;;5095600;28;20030;-79
2022/01/25 04:31:51;;;;;;;38.88;28.20;;;7.00;68.90;;;;;;5095745;28;20017;-80
2022/01/25 04:50:23;;;;;;;43.72;30.20;;;7.00;69.00;;;;;;5071578;28;20029;-80
2022/01/25 04:52:59;;;;;;;40.72;29.17;;;6.90;68.80;;;;;;5070669;28;20027;-80
2022/01/25 04:55:34;;;;;;;42.97;31.38;;;7.00;69.00;;;;;;5071324;28;20031;-79
2022/01/25 04:58:07;;;;;;;43.47;29.13;;;7.00;69.00;;;;;;5071229;28;20036;-80
2022/01/25 05:00:34;;;;;;;40.65;27.90;;;6.90;68.80;;;;;;5070948;28;20036;-81
2022/01/25 05:03:13;;;;;;;42.13;29.73;;;6.90;68.80;;;;;;5071064;28;20035;-79
2022/01/25 05:05:53;;;;;;;41.97;29.00;;;6.90;68.90;;;;;;5070464;28;20036;-79
2022/01/25 05:10:59;;;;;;;45.80;29.70;;;6.90;68.90;;;;;;5070436;28;20107;-79
2022/01/25 05:18:39;;;;;;;41.05;29.40;;;6.90;68.90;;;;;;5070386;28;20037;-79
2022/01/25 05:23:49;;;;;;;42.33;29.52;;;6.90;69.00;;;;;;5072714;28;20040;-79
2022/01/25 05:26:15;;;;;;;43.17;29.15;;;6.90;68.90;;;;;;5072965;28;20029;-79
2022/01/25 05:28:41;;;;;;;43.67;29.85;;;6.90;68.90;;;;;;5073100;28;20115;-80
2022/01/25 05:31:07;;;;;;;44.85;31.75;;;6.90;68.90;;;;;;5073886;28;20115;-79
2022/01/25 05:33:33;;;;;;;41.15;29.65;;;6.90;69.00;;;;;;5065199;28;20086;-79
2022/01/25 05:35:59;;;;;;;44.10;31.25;;;6.90;69.00;;;;;;5063803;28;20663;-79
2022/01/25 05:38:25;;;;;;;42.92;29.52;;;6.90;69.00;;;;;;5069591;28;20056;-79
2022/01/25 05:41:02;;;;;;;41.58;28.98;;;6.90;69.00;;;;;;5054232;28;20051;-80
2022/01/25 05:46:16;;;;;;;40.50;28.75;;;6.90;69.00;;;;;;5056295;28;20044;-79
2022/01/25 05:48:43;;;;;;;43.38;30.42;;;6.90;68.90;;;;;;5066427;28;20036;-80
2022/01/25 05:51:10;;;;;;;44.47;31.10;;;6.90;69.00;;;;;;5049544;28;20064;-78
2022/01/25 05:53:37;;;;;;;42.13;28.15;;;6.90;69.00;;;;;;5049936;28;20672;-79
2022/01/25 05:56:04;;;;;;;41.90;28.88;;;6.90;68.90;;;;;;5051558;28;20492;-78
2022/01/25 05:58:30;;;;;;;43.20;29.05;;;6.90;68.90;;;;;;5059958;28;20036;-80
2022/01/25 06:00:56;;;;;;;43.65;30.88;;;6.90;69.00;;;;;;5067876;28;20378;-80
2022/01/25 06:03:22;;;;;;;42.30;28.65;;;6.90;69.00;;;;;;5070714;28;20077;-79
2022/01/25 06:05:48;;;;;;;39.10;28.73;;;6.90;69.00;;;;;;5068762;28;20181;-80
2022/01/25 06:08:14;;;;;;;39.95;28.42;;;6.90;69.00;;;;;;5069089;28;20551;-80
2022/01/25 06:10:41;;;;;;;42.92;29.98;;;6.90;69.00;;;;;;5067082;28;20104;-80
2022/01/25 06:13:07;;;;;;;41.30;29.45;;;6.90;69.00;;;;;;5069994;28;20488;-79
2022/01/25 06:15:33;;;;;;;41.25;29.77;;;6.90;69.00;;;;;;5069683;28;20031;-79
2022/01/25 06:18:00;;;;;;;42.80;28.35;;;6.80;68.80;;;;;;5068883;28;20036;-78
2022/01/25 06:20:28;;;;;;;42.13;30.60;;;6.90;69.00;;;;;;5069158;28;20024;-79
2022/01/25 06:22:54;;;;;;;42.55;29.52;;;6.90;69.00;;;;;;5069399;28;20056;-80
2022/01/25 06:25:21;;;;;;;41.83;30.92;;;6.80;68.80;;;;;;5064787;28;20104;-79
2022/01/25 06:27:47;;;;;;;39.83;28.52;;;6.80;68.80;;;;;;5057781;28;20527;-79
2022/01/25 06:30:16;;;;;;;40.78;28.90;;;6.90;69.00;;;;;;5062696;28;20136;-85
2022/01/25 06:32:43;;;;;;;42.08;29.90;;;6.90;69.00;;;;;;5058483;28;20025;-80
2022/01/25 06:35:10;;;;;;;43.45;30.58;;;6.90;69.00;;;;;;5049723;28;20151;-92
2022/01/25 06:37:36;;;;;;;39.38;28.63;;;6.90;69.00;;;;;;5077651;28;20118;-86
2022/01/25 06:40:24;;;;;;;40.42;28.33;;;6.90;68.90;;;;;;5068856;28;20483;-84
2022/01/25 06:42:51;;;;;;;40.58;29.75;;;6.90;68.90;;;;;;5068125;28;20035;-83
2022/01/25 06:45:19;;;;;;;40.53;29.00;;;6.90;68.90;;;;;;5070010;28;20036;-84
2022/01/25 06:47:48;;;;;;;42.03;29.60;;;6.90;68.90;;;;;;5069508;28;20033;-84
2022/01/25 06:50:16;;;;;;;42.60;29.13;;;6.90;68.90;;;;;;5067861;28;20036;-86
2022/01/25 06:52:42;;;;;;;38.40;27.33;;;6.90;68.90;;;;;;5068976;28;20060;-84
2022/01/25 06:55:12;;;;;;;41.17;28.63;;;6.90;68.90;;;;;;5064977;28;20133;-85
2022/01/25 06:57:39;;;;;;;42.50;29.40;;;6.90;68.90;;;;;;5069968;28;20028;-84
2022/01/25 07:00:13;;;;;;;40.15;28.77;;;6.90;68.80;;;;;;5066931;28;20041;-84
2022/01/25 07:02:39;;;;;;;48.30;31.20;;;6.90;68.80;;;;;;5070245;28;20297;-90
2022/01/25 07:05:06;;;;;;;47.13;32.33;;;6.90;68.80;;;;;;5070001;28;20063;-85
2022/01/25 07:07:32;;;;;;;44.67;30.33;;;6.80;68.50;;;;;;5068975;28;20247;-85
2022/01/25 07:09:58;;;;;;;48.00;32.33;;;6.80;68.90;;;;;;5064441;28;20079;-85
2022/01/25 07:12:24;;;;;;;44.40;30.25;;;6.70;68.10;;;;;;5058110;28;20511;-89
2022/01/25 07:14:50;;;;;;;46.90;32.63;;;6.70;68.10;;;;;;5069120;28;20078;-85
2022/01/25 07:17:17;;;;;;;49.47;32.42;;;6.60;67.90;;;;;;5067497;28;20433;-86
2022/01/25 07:19:43;;;;;;;47.75;34.00;;;6.60;67.90;;;;;;5064865;28;20090;-84
2022/01/25 07:22:09;;;;;;;52.78;34.80;;;6.50;67.60;;;;;;5048514;28;20064;-85
2022/01/25 07:24:35;;;;;;;49.55;34.00;;;6.50;67.60;;;;;;5062162;28;20035;-89
2022/01/25 07:27:01;;;;;;;47.95;33.55;;;6.50;67.60;;;;;;5062203;28;20025;-85
2022/01/25 07:29:27;;;;;;;49.00;31.73;;;6.40;67.30;;;;;;5069096;28;20036;-83
2022/01/25 07:31:53;;;;;;;51.00;32.53;;;6.40;67.40;;;;;;5067347;28;20500;-85
2022/01/25 07:34:19;;;;;;;45.63;32.00;;;6.30;67.10;;;;;;5067156;28;20035;-84
2022/01/25 07:36:46;;;;;;;46.53;33.38;;;6.30;67.00;;;;;;5049883;28;20032;-88
2022/01/25 07:39:12;;;;;;;47.00;31.83;;;6.30;67.00;;;;;;5066629;28;20028;-85
2022/01/25 07:41:39;;;;;;;44.85;31.35;;;6.30;66.90;;;;;;5066127;28;20426;-84
2022/01/25 07:44:05;;;;;;;46.97;32.50;;;6.30;66.80;;;;;;5065216;28;20471;-85
2022/01/25 07:46:32;;;;;;;47.20;32.53;;;6.20;66.50;;;;;;5067380;28;20082;-85
2022/01/25 07:48:59;;;;;;;48.85;32.85;;;6.30;66.60;;;;;;5048418;28;20540;-85
2022/01/25 07:51:28;;;;;;;51.80;34.20;;;6.20;66.30;;;;;;5049658;28;20025;-84
2022/01/25 07:53:56;;;;;;;49.50;33.25;;;6.20;66.20;;;;;;5065942;28;20178;-84
2022/01/25 07:56:22;;;;;;;47.88;32.60;;;6.20;66.20;;;;;;5066423;28;20056;-84
2022/01/25 07:58:48;;;;;;;45.95;32.20;;;6.20;66.10;;;;;;5050162;28;20044;-84
2022/01/25 08:01:15;;;;;;;50.35;33.47;;;6.20;66.10;;;;;;5066493;28;20388;-84
2022/01/25 08:03:42;;;;;;;44.53;30.80;;;6.10;65.90;;;;;;5051395;28;20052;-85
2022/01/25 08:06:09;;;;;;;46.13;31.40;;;6.10;65.90;;;;;;5050988;28;20021;-84
2022/01/25 08:08:36;;;;;;;50.55;33.70;;;6.10;65.80;;;;;;5059723;28;20080;-85
2022/01/25 08:11:03;;;;;;;47.20;33.45;;;6.00;65.60;;;;;;5069233;28;20055;-87
2022/01/25 08:13:30;;;;;;;44.08;32.15;;;6.10;65.70;;;;;;5070645;28;20545;-92
2022/01/25 08:15:56;;;;;;;44.95;32.13;;;6.10;65.60;;;;;;5070942;28;20040;-83
2022/01/25 08:18:22;;;;;;;46.92;32.30;;;6.00;65.40;;;;;;5051331;28;20384;-85
2022/01/25 08:20:48;;;;;;;46.65;31.33;;;6.00;65.30;;;;;;5069535;28;20080;-87
2022/01/25 08:23:15;;;;;;;53.38;34.05;;;6.00;65.30;;;;;;5068433;28;20020;-85
2022/01/25 08:25:41;;;;;;;47.28;29.27;;;6.00;65.10;;;;;;5067936;28;20021;-80
2022/01/25 08:28:07;;;;;;;52.42;33.00;;;6.00;65.20;;;;;;5069266;28;20054;-92
2022/01/25 08:30:33;;;;;;;46.63;29.90;;;6.10;65.90;;;;;;5067982;28;20092;-89
2022/01/25 08:32:59;;;;;;;46.58;30.85;;;6.20;66.20;;;;;;5050790;28;20098;-85
2022/01/25 08:35:26;;;;;;;43.88;29.88;;;6.40;66.30;;;;;;5067331;28;20054;-87
2022/01/25 08:37:52;;;;;;;45.17;30.77;;;6.50;66.20;;;;;;5069058;28;20032;-90
2022/01/25 08:40:18;;;;;;;47.20;29.67;;;6.60;66.10;;;;;;5067209;28;20392;-88
2022/01/25 08:42:44;;;;;;;47.13;30.75;;;6.60;66.00;;;;;;5052258;28;20449;-87
2022/01/25 08:45:11;;;;;;;44.58;30.30;;;6.70;66.00;;;;;;5068152;28;20123;-89
2022/01/25 08:47:37;;;;;;;44.88;30.35;;;6.70;66.00;;;;;;5066952;28;20032;-89
2022/01/25 08:50:09;;;;;;;48.08;31.67;;;6.80;66.10;;;;;;5067534;28;20025;-82
2022/01/25 08:52:36;;;;;;;41.58;29.00;;;6.80;66.00;;;;;;5066083;28;20063;-86
2022/01/25 08:55:03;;;;;;;44.05;28.73;;;6.80;66.00;;;;;;5066024;28;20036;-91
2022/01/25 08:57:29;;;;;;;42.95;29.48;;;6.80;66.00;;;;;;5066003;28;20379;-84
2022/01/25 08:59:55;;;;;;;46.72;30.75;;;6.80;66.00;;;;;;5048608;28;20460;-82
2022/01/25 09:02:21;;;;;;;42.50;30.13;;;6.80;66.00;;;;;;5066157;28;20141;-81
2022/01/25 09:04:47;;;;;;;41.50;29.05;;;6.80;66.00;;;;;;5066117;28;20043;-82
2022/01/25 09:07:13;;;;;;;43.50;29.73;;;6.80;66.00;;;;;;5066058;28;20442;-80
2022/01/25 09:09:40;;;;;;;42.67;30.20;;;6.80;66.00;;;;;;5065668;28;20036;-80
2022/01/25 09:12:07;;;;;;;44.67;30.23;;;6.80;65.90;;;;;;5066927;28;20033;-82
2022/01/25 09:14:33;;;;;;;43.25;29.88;;;6.80;66.00;;;;;;5066644;28;20591;-81
2022/01/25 09:16:59;;;;;;;43.78;30.45;;;6.80;66.00;;;;;;5065255;28;20032;-80
2022/01/25 09:19:25;;;;;;;48.35;31.60;;;6.80;66.00;;;;;;5066657;28;20046;-80
2022/01/25 09:21:51;;;;;;;45.10;30.67;;;6.80;66.00;;;;;;5066020;28;20049;-80
2022/01/25 09:24:17;;;;;;;41.17;28.13;;;6.80;65.90;;;;;;5066571;28;20036;-81
2022/01/25 09:26:43;;;;;;;44.03;30.90;;;6.80;65.90;;;;;;5065153;28;20033;-81
2022/01/25 09:29:10;;;;;;;42.60;28.67;;;6.80;65.90;;;;;;5063107;28;20033;-80
2022/01/25 09:31:36;;;;;;;45.15;29.77;;;6.80;65.80;;;;;;5060991;28;20044;-80
2022/01/25 09:34:02;;;;;;;42.53;29.60;;;6.80;65.80;;;;;;5065042;28;20032;-80
2022/01/25 09:36:29;;;;;;;43.13;29.73;;;6.80;65.80;;;;;;5059762;28;20060;-80
2022/01/25 09:38:56;;;;;;;41.47;28.48;;;6.90;65.90;;;;;;5065579;28;20036;-80
2022/01/25 09:41:23;;;;;;;47.28;31.08;;;6.90;65.90;;;;;;5065098;28;20028;-80
2022/01/25 09:43:49;;;;;;;42.90;29.80;;;6.90;65.90;;;;;;5048459;28;20495;-80
2022/01/25 09:46:16;;;;;;;42.22;29.83;;;6.90;65.80;;;;;;5066151;28;20438;-79
2022/01/25 09:48:42;;;;;;;46.70;29.88;;;6.90;65.80;;;;;;5066309;28;20036;-79
2022/01/25 09:51:10;;;;;;;40.15;28.05;;;6.90;65.80;;;;;;5065736;28;20032;-80
2022/01/25 09:53:38;;;;;;;43.33;30.80;;;6.90;65.80;;;;;;5066594;28;20040;-82
2022/01/25 09:56:05;;;;;;;42.33;29.25;;;6.90;65.70;;;;;;5064978;28;20028;-81
2022/01/25 09:58:31;;;;;;;45.65;30.80;;;6.90;65.70;;;;;;5065112;28;20602;-81
2022/01/25 10:01:00;;;;;;;45.60;30.80;;;7.00;65.90;;;;;;5065827;28;20115;-79
2022/01/25 10:03:34;;;;;;;44.15;31.73;;;6.90;65.70;;;;;;5066746;28;20047;-79
2022/01/25 10:06:02;;;;;;;43.92;29.10;;;6.90;65.70;;;;;;5067221;28;20082;-80
2022/01/25 10:08:35;;;;;;;46.53;30.45;;;6.90;65.60;;;;;;5069840;28;20247;-79
2022/01/25 10:11:10;;;;;;;44.58;30.85;;;7.00;65.80;;;;;;5062096;28;20126;-80
2022/01/25 10:13:39;;;;;;;46.72;30.58;;;6.90;65.60;;;;;;5058334;28;20028;-82
2022/01/25 10:16:19;;;;;;;45.03;30.30;;;7.00;65.80;;;;;;5050932;28;20055;-81
2022/01/25 10:19:00;;;;;;;48.42;31.92;;;7.00;65.70;;;;;;5064956;28;20044;-81
2022/01/25 10:21:35;;;;;;;45.50;30.65;;;7.00;65.70;;;;;;5068016;28;20041;-78
2022/01/25 10:24:19;;;;;;;47.60;30.42;;;7.00;65.70;;;;;;5069940;28;20040;-78
2022/01/25 10:26:52;;;;;;;50.38;31.08;;;7.00;65.70;;;;;;5069874;28;20028;-79
2022/01/25 10:29:32;;;;;;;45.75;30.90;;;7.00;65.70;;;;;;5069532;28;20503;-78
2022/01/25 10:32:05;;;;;;;47.88;30.88;;;7.10;65.80;;;;;;5068339;28;20058;-79
2022/01/25 10:34:43;;;;;;;46.47;30.80;;;7.10;65.80;;;;;;5070003;28;20032;-78
2022/01/25 10:37:16;;;;;;;47.95;30.88;;;7.10;65.70;;;;;;5069878;28;20038;-79
2022/01/25 10:39:45;;;;;;;46.78;30.40;;;7.10;65.70;;;;;;5068796;28;20421;-79
2022/01/25 10:42:20;;;;;;;47.60;30.23;;;7.20;65.80;;;;;;5051594;28;20048;-78
2022/01/25 10:44:47;;;;;;;46.95;32.00;;;7.10;65.70;;;;;;5069150;28;20039;-79
2022/01/25 10:47:13;;;;;;;50.25;32.67;;;7.20;65.80;;;;;;5070039;28;20025;-79
2022/01/25 10:49:48;;;;;;;50.75;33.35;;;7.10;65.60;;;;;;5069652;28;20045;-80
2022/01/25 10:52:27;;;;;;;49.97;32.05;;;7.20;65.70;;;;;;5070200;28;20021;-79
2022/01/25 10:54:53;;;;;;;51.25;31.60;;;7.20;65.70;;;;;;5066941;28;20488;-79
2022/01/25 10:57:23;;;;;;;49.00;32.00;;;7.20;65.70;;;;;;5067743;28;20032;-80
2022/01/25 11:00:03;;;;;;;50.45;32.10;;;7.20;65.70;;;;;;5067531;28;20044;-81
2022/01/25 11:02:29;;;;;;;49.33;33.03;;;7.20;65.60;;;;;;5067960;28;20039;-79
2022/01/25 11:05:08;;;;;;;45.85;31.83;;;7.20;65.60;;;;;;5051303;28;20030;-82
2022/01/25 11:07:40;;;;;;;47.90;29.50;;;7.20;65.60;;;;;;5056335;28;20641;-89
2022/01/25 11:10:08;;;;;;;50.50;31.27;;;7.20;65.60;;;;;;5049798;28;20029;-90
2022/01/25 11:12:40;;;;;;;51.17;33.80;;;7.20;65.60;;;;;;5050147;28;20032;-92
2022/01/25 11:15:07;;;;;;;52.00;30.77;;;7.20;65.50;;;;;;5067243;28;20059;-90
2022/01/25 11:17:34;;;;;;;48.22;30.85;;;7.30;65.70;;;;;;5051800;28;20052;-94
2022/01/25 11:20:04;;;;;;;50.22;31.73;;;7.20;65.50;;;;;;5088058;28;20064;-89
2022/01/25 11:22:30;;;;;;;50.60;30.70;;;7.30;65.70;;;;;;5070044;28;20080;-89
2022/01/25 11:25:02;;;;;;;49.95;31.40;;;7.30;65.60;;;;;;5069406;28;20062;-87
2022/01/25 11:27:30;;;;;;;52.20;30.60;;;7.30;65.60;;;;;;5068985;28;20021;-88
2022/01/25 11:30:09;;;;;;;45.45;29.13;;;7.30;65.60;;;;;;5069358;28;20334;-88
2022/01/25 11:32:40;;;;;;;48.50;29.60;;;7.40;65.70;;;;;;5051879;28;20020;-88
2022/01/25 11:35:10;;;;;;;49.95;29.58;;;7.40;65.60;;;;;;5068516;28;20085;-87
2022/01/25 11:37:42;;;;;;;48.40;30.60;;;7.40;65.50;;;;;;5068714;28;20032;-88
2022/01/25 11:40:26;;;;;;;52.05;30.65;;;7.50;65.60;;;;;;5069019;28;20104;-87
2022/01/25 11:42:55;;;;;;;48.13;28.83;;;7.50;65.60;;;;;;5069606;28;20021;-86
2022/01/25 11:45:26;;;;;;;52.45;31.05;;;7.50;65.50;;;;;;5069964;28;20508;-87
2022/01/25 11:47:53;;;;;;;46.65;28.42;;;7.50;65.50;;;;;;5051925;28;20388;-90
2022/01/25 11:50:28;;;;;;;54.03;31.60;;;7.50;65.40;;;;;;5068625;28;20412;-90
2022/01/25 11:53:05;;;;;;;45.40;29.25;;;7.50;65.40;;;;;;5070042;28;20059;-86
2022/01/25 11:55:37;;;;;;;47.10;28.17;;;7.60;65.50;;;;;;5068447;28;20125;-95
2022/01/25 11:58:07;;;;;;;45.45;31.40;;;7.60;65.50;;;;;;5073068;28;20070;-86
2022/01/25 12:00:45;;;;;;;41.05;25.77;;;7.60;65.40;;;;;;5082832;28;20036;-88
2022/01/25 12:03:34;;;;;;;44.72;25.92;;;7.60;65.30;;;;;;5087598;28;20058;-94
2022/01/25 12:06:26;;;;;;;44.38;27.17;;;7.70;65.70;;;;;;5086507;28;20113;-90
2022/01/25 12:11:51;;;;;;;44.33;25.15;;;7.80;65.70;;;;;;5068594;28;20028;-94
2022/01/25 12:14:23;;;;;;;42.40;25.95;;;7.90;65.80;;;;;;5036066;28;20068;-95
2022/01/25 12:16:51;;;;;;;44.20;28.10;;;8.00;65.90;;;;;;5069518;28;20119;-92
2022/01/25 12:19:37;;;;;;;41.65;26.58;;;8.00;65.80;;;;;;5068419;28;20443;-90
2022/01/25 12:22:03;;;;;;;44.53;26.23;;;8.00;65.60;;;;;;5056498;28;20083;-89
2022/01/25 12:24:53;;;;;;;40.72;26.58;;;8.10;65.70;;;;;;5068841;28;20032;-87
2022/01/25 12:27:54;;;;;;;42.83;26.38;;;8.10;65.60;;;;;;5050785;28;20047;-88
2022/01/25 12:30:32;;;;;;;40.72;25.30;;;8.20;65.70;;;;;;5068254;28;20056;-89
2022/01/25 12:33:03;;;;;;;41.90;26.85;;;8.20;65.60;;;;;;5068557;28;20358;-90
2022/01/25 12:35:38;;;;;;;41.92;27.15;;;8.20;65.60;;;;;;5035081;28;20036;-90
2022/01/25 12:38:05;;;;;;;43.20;26.48;;;8.30;65.70;;;;;;5064514;28;20033;-91
2022/01/25 12:40:39;;;;;;;41.53;27.17;;;8.30;65.70;;;;;;5065064;28;20065;-90
2022/01/25 12:43:08;;;;;;;42.78;27.40;;;8.30;65.60;;;;;;5065192;28;20055;-92
2022/01/25 12:45:44;;;;;;;45.65;28.45;;;8.30;65.60;;;;;;5064435;28;20086;-88
2022/01/25 12:48:13;;;;;;;43.55;27.02;;;8.40;65.70;;;;;;5052521;28;20077;-87
2022/01/25 12:50:42;;;;;;;41.67;25.55;;;8.30;65.50;;;;;;5055714;28;20376;-87
2022/01/25 12:53:15;;;;;;;45.65;27.95;;;8.40;65.70;;;;;;5061181;28;20036;-87
2022/01/25 12:55:44;;;;;;;42.67;27.48;;;8.40;65.60;;;;;;5069396;28;20036;-91
2022/01/25 12:58:10;;;;;;;44.05;28.52;;;8.40;65.60;;;;;;5069529;28;20031;-88
2022/01/25 13:00:45;;;;;;;40.05;23.80;;;8.40;65.60;;;;;;5084589;28;20029;-87
2022/01/25 13:03:17;;;;;;;40.97;26.05;;;8.40;65.60;;;;;;5086723;28;20477;-86
2022/01/25 13:06:05;;;;;;;40.63;25.77;;;8.40;65.70;;;;;;5080133;28;20020;-87
2022/01/25 13:08:54;;;;;;;42.00;25.90;;;8.50;65.90;;;;;;5077762;28;20089;-85
2022/01/25 13:11:21;;;;;;;43.08;25.10;;;8.50;65.80;;;;;;5091007;28;20040;-89
2022/01/25 13:14:15;;;;;;;39.10;24.48;;;8.60;66.00;;;;;;5089659;28;20041;-86
2022/01/25 13:16:44;;;;;;;40.85;24.67;;;8.60;66.50;;;;;;5090954;28;20024;-88
2022/01/25 13:19:11;;;;;;;40.25;24.90;;;8.60;65.90;;;;;;5092333;28;20040;-87
2022/01/25 13:21:43;;;;;;;41.30;24.85;;;8.60;65.90;;;;;;5074012;28;20051;-86
2022/01/25 13:24:17;;;;;;;39.50;26.43;;;8.60;65.90;;;;;;5083037;28;20123;-87
2022/01/25 13:27:03;;;;;;;42.20;25.60;;;8.60;65.90;;;;;;5072092;28;20078;-87
2022/01/25 13:32:26;;;;;;;38.88;23.77;;;8.60;65.80;;;;;;5073055;28;20025;-89
2022/01/25 13:35:28;;;;;;;37.78;25.27;;;8.60;65.80;;;;;;5071364;28;20029;-87
2022/01/25 13:38:20;;;;;;;39.30;24.40;;;8.60;65.70;;;;;;5068740;28;20097;-86
2022/01/25 13:40:55;;;;;;;40.90;25.30;;;8.60;65.70;;;;;;5070442;28;20039;-83
2022/01/25 13:46:17;;;;;;;41.72;25.17;;;8.60;65.70;;;;;;5071717;28;20081;-84
2022/01/25 13:48:44;;;;;;;38.45;24.17;;;8.60;65.70;;;;;;5064789;28;20845;-84
2022/01/25 13:51:12;;;;;;;40.17;25.50;;;8.70;65.90;;;;;;5064913;28;20028;-85
2022/01/25 13:53:40;;;;;;;42.65;27.17;;;8.70;65.80;;;;;;5054421;28;20310;-84
2022/01/25 13:56:10;;;;;;;41.67;25.25;;;8.70;65.80;;;;;;5072155;28;20578;-85
2022/01/25 13:58:40;;;;;;;41.03;24.98;;;8.70;65.80;;;;;;5072085;28;20034;-88
2022/01/25 14:01:09;;;;;;;44.22;27.10;;;8.70;65.80;;;;;;5070973;28;20147;-84
2022/01/25 14:03:42;;;;;;;42.25;26.15;;;8.70;65.80;;;;;;5071313;28;20509;-85
2022/01/25 14:06:26;;;;;;;45.65;28.23;;;8.70;65.70;;;;;;5086875;28;20032;-85
2022/01/25 14:09:00;;;;;;;41.97;26.25;;;8.70;65.70;;;;;;5053800;28;20446;-85
2022/01/25 14:11:36;;;;;;;44.53;25.85;;;8.70;65.70;;;;;;5070397;28;20033;-85
2022/01/25 14:22:45;;;;;;;40.50;26.65;;;8.80;65.80;;;;;;5069276;28;20048;-86
2022/01/25 14:25:11;;;;;;;42.40;25.75;;;8.80;65.80;;;;;;5086012;28;20036;-86
2022/01/25 14:27:53;;;;;;;47.20;27.65;;;8.80;65.80;;;;;;5069235;28;20040;-87
2022/01/25 14:30:19;;;;;;;40.78;25.70;;;8.70;65.50;;;;;;5053342;28;20029;-89
2022/01/25 14:32:59;;;;;;;43.35;26.42;;;8.80;65.80;;;;;;5070065;28;20546;-87
2022/01/25 14:35:25;;;;;;;43.40;26.60;;;8.70;65.60;;;;;;5070570;28;20032;-92
2022/01/25 14:37:51;;;;;;;45.80;28.73;;;8.70;65.60;;;;;;5070283;28;20130;-90
2022/01/25 14:40:17;;;;;;;46.22;27.20;;;8.70;65.60;;;;;;5070160;28;20048;-88
2022/01/25 14:42:46;;;;;;;43.38;27.40;;;8.70;65.60;;;;;;5069533;28;20029;-86
2022/01/25 14:45:20;;;;;;;42.03;26.50;;;8.70;65.70;;;;;;5077986;28;20035;-87
2022/01/25 14:47:54;;;;;;;44.47;27.83;;;8.70;65.70;;;;;;5054890;28;20456;-88
2022/01/25 14:50:33;;;;;;;44.92;27.30;;;8.60;65.50;;;;;;5069029;28;20034;-88